Time;durP1;ratioP1;P1;durP2;ratioP2;P2;SDS_P1;SDS_P2;PMS_P1;PMS_P2;Temp;Humidity;BMP_temperature;BMP_pressure;BME280_temperature;BME280_humidity;BME280_pressure;Samples;Min_cycle;Max_cycle;Signal;HPM_P1;HPM_P2
2022/01/16 00:00:25;;;;;;;;;;;5.80;99.90;;;;;;2089654;28;20308;-72
2022/01/16 00:04:57;;;;;;;;;;;5.70;99.90;;;;;;2090110;28;20000;-72
2022/01/16 00:05:57;;;;;;;;;;;5.80;99.90;;;;;;2090028;28;20356;-72
2022/01/16 00:07:03;;;;;;;;;;;5.70;99.90;;;;;;2089721;28;19912;-72
2022/01/16 00:08:04;;;;;;;;;;;5.70;99.90;;;;;;2090387;28;20004;-72
2022/01/16 00:09:04;;;;;;;;;;;5.70;99.90;;;;;;2082398;28;19920;-72
2022/01/16 00:10:06;;;;;;;;;;;5.70;99.90;;;;;;2088209;28;20283;-72
2022/01/16 00:11:07;;;;;;;;;;;5.70;99.90;;;;;;2090068;28;19963;-72
2022/01/16 00:12:10;;;;;;;;;;;5.60;99.90;;;;;;2088201;28;19910;-72
2022/01/16 00:13:11;;;;;;;;;;;5.60;99.90;;;;;;2089422;28;19946;-72
2022/01/16 00:14:11;;;;;;;;;;;5.60;99.90;;;;;;2090190;28;19916;-72
2022/01/16 00:15:12;;;;;;;;;;;5.60;99.90;;;;;;2089616;28;19971;-72
2022/01/16 00:16:15;;;;;;;;;;;5.60;99.90;;;;;;2090186;28;19909;-72
2022/01/16 00:17:16;;;;;;;;;;;5.60;99.90;;;;;;2090065;28;19924;-72
2022/01/16 00:18:23;;;;;;;;;;;5.60;99.90;;;;;;2089673;28;19916;-72
2022/01/16 00:19:24;;;;;;;;;;;5.60;99.90;;;;;;2099757;28;20450;-72
2022/01/16 00:20:25;;;;;;;;;;;5.60;99.90;;;;;;2089523;28;20288;-72
2022/01/16 00:21:27;;;;;;;;;;;5.50;99.90;;;;;;2081026;28;19917;-72
2022/01/16 00:22:32;;;;;;;;;;;5.50;99.90;;;;;;2083133;28;19919;-72
2022/01/16 00:23:33;;;;;;;;;;;5.60;99.90;;;;;;2088494;28;19913;-72
2022/01/16 00:24:34;;;;;;;;;;;5.60;99.90;;;;;;2088254;28;19919;-72
2022/01/16 00:25:35;;;;;;;;;;;5.60;99.90;;;;;;2097196;28;19928;-72
2022/01/16 00:26:36;;;;;;;;;;;5.50;99.90;;;;;;2097850;28;20379;-72
2022/01/16 00:27:36;;;;;;;;;;;5.50;99.90;;;;;;2089908;28;19909;-72
2022/01/16 00:28:37;;;;;;;;;;;5.50;99.90;;;;;;2082738;28;19913;-72
2022/01/16 00:29:37;;;;;;;;;;;5.50;99.90;;;;;;2089120;28;20450;-72
2022/01/16 00:30:37;;;;;;;;;;;5.50;99.90;;;;;;2089499;28;19944;-72
2022/01/16 00:31:39;;;;;;;;;;;5.50;99.90;;;;;;2089378;28;19936;-72
2022/01/16 00:32:39;;;;;;;;;;;5.50;99.90;;;;;;2090117;28;19912;-72
2022/01/16 00:33:42;;;;;;;;;;;5.50;99.90;;;;;;2089968;28;19909;-72
2022/01/16 00:34:42;;;;;;;;;;;5.50;99.90;;;;;;2089522;28;19909;-72
2022/01/16 00:35:43;;;;;;;;;;;5.50;99.90;;;;;;2089026;28;19909;-72
2022/01/16 00:36:43;;;;;;;;;;;5.60;99.90;;;;;;2097650;28;19908;-72
2022/01/16 00:37:46;;;;;;;;;;;5.50;99.90;;;;;;2080970;28;19984;-72
2022/01/16 00:38:48;;;;;;;;;;;5.50;99.90;;;;;;2088350;28;19913;-72
2022/01/16 00:39:48;;;;;;;;;;;5.50;99.90;;;;;;2090101;28;19908;-72
2022/01/16 00:40:49;;;;;;;;;;;5.50;99.90;;;;;;2097802;28;20507;-72
2022/01/16 00:41:49;;;;;;;;;;;5.50;99.90;;;;;;2097684;28;19909;-72
2022/01/16 00:42:50;;;;;;;;;;;5.50;99.90;;;;;;2087338;28;19948;-72
2022/01/16 00:43:51;;;;;;;;;;;5.50;99.90;;;;;;2084475;28;19955;-72
2022/01/16 00:44:52;;;;;;;;;;;5.50;99.90;;;;;;2088190;28;19912;-72
2022/01/16 00:45:52;;;;;;;;;;;5.40;99.90;;;;;;2089699;28;20364;-72
2022/01/16 00:46:53;;;;;;;;;;;5.40;99.90;;;;;;2089949;28;19916;-72
2022/01/16 00:47:53;;;;;;;;;;;5.40;99.90;;;;;;2090140;28;19908;-72
2022/01/16 00:48:54;;;;;;;;;;;5.40;99.90;;;;;;2088052;28;19916;-72
2022/01/16 00:49:54;;;;;;;;;;;5.40;99.90;;;;;;2090064;28;20432;-72
2022/01/16 00:50:55;;;;;;;;;;;5.40;99.90;;;;;;2090163;28;20285;-72
2022/01/16 00:51:55;;;;;;;;;;;5.40;99.90;;;;;;2091738;28;19913;-72
2022/01/16 00:52:55;;;;;;;;;;;5.40;99.90;;;;;;2091346;28;19962;-72
2022/01/16 00:53:56;;;;;;;;;;;5.40;99.90;;;;;;2090877;28;19956;-72
2022/01/16 00:55:02;;;;;;;;;;;5.30;99.90;;;;;;2082424;28;19963;-72
2022/01/16 00:56:03;;;;;;;;;;;5.30;99.90;;;;;;2090931;28;19956;-72
2022/01/16 00:57:04;;;;;;;;;;;5.30;99.90;;;;;;2091654;28;19990;-72
2022/01/16 00:58:05;;;;;;;;;;;5.30;99.90;;;;;;2091514;28;19913;-72
2022/01/16 00:59:05;;;;;;;;;;;5.30;99.90;;;;;;2090534;28;19951;-72
2022/01/16 01:00:06;;;;;;;;;;;5.30;99.90;;;;;;2091457;28;19996;-72
2022/01/16 01:01:07;;;;;;;;;;;5.30;99.90;;;;;;2091644;28;19908;-73
2022/01/16 01:02:08;;;;;;;;;;;5.30;99.90;;;;;;2091856;28;20283;-72
2022/01/16 01:03:08;;;;;;;;;;;5.30;99.90;;;;;;2090668;28;19948;-72
2022/01/16 01:04:09;;;;;;;;;;;5.30;99.90;;;;;;2091230;28;19971;-72
2022/01/16 01:05:09;;;;;;;;;;;5.30;99.90;;;;;;2091249;28;20435;-72
2022/01/16 01:06:10;;;;;;;;;;;5.30;99.90;;;;;;2091499;28;20011;-72
2022/01/16 01:07:10;;;;;;;;;;;5.30;99.90;;;;;;2090471;28;19971;-72
2022/01/16 01:08:11;;;;;;;;;;;5.30;99.90;;;;;;2091564;28;19908;-72
2022/01/16 01:09:11;;;;;;;;;;;5.30;99.90;;;;;;2090981;28;19928;-72
2022/01/16 01:10:12;;;;;;;;;;;5.30;99.90;;;;;;2091538;28;19924;-72
2022/01/16 01:11:16;;;;;;;;;;;5.30;99.90;;;;;;2090648;28;19915;-72
2022/01/16 01:12:30;;;;;;;;;;;5.30;99.90;;;;;;2091029;28;19952;-72
2022/01/16 01:13:34;;;;;;;;;;;5.40;99.90;;;;;;2083246;28;20000;-72
2022/01/16 01:14:40;;;;;;;;;;;5.40;99.90;;;;;;2087165;28;20091;-72
2022/01/16 01:15:46;;;;;;;;;;;5.40;99.90;;;;;;2083135;28;19940;-72
2022/01/16 01:16:52;;;;;;;;;;;5.40;99.90;;;;;;2091698;28;19909;-72
2022/01/16 01:17:52;;;;;;;;;;;5.40;99.90;;;;;;2091496;28;20308;-72
2022/01/16 01:18:53;;;;;;;;;;;5.40;99.90;;;;;;2087652;28;20045;-72
2022/01/16 01:19:53;;;;;;;;;;;5.40;99.90;;;;;;2091415;28;20348;-72
2022/01/16 01:20:54;;;;;;;;;;;5.40;99.90;;;;;;2091601;28;20004;-72
2022/01/16 01:21:55;;;;;;;;;;;5.30;99.90;;;;;;2082345;28;19909;-72
2022/01/16 01:22:56;;;;;;;;;;;5.30;99.90;;;;;;2082567;28;19939;-72
2022/01/16 01:23:57;;;;;;;;;;;5.30;99.90;;;;;;2091279;28;19908;-72
2022/01/16 01:24:57;;;;;;;;;;;5.30;99.90;;;;;;2090444;28;19909;-72
2022/01/16 01:25:58;;;;;;;;;;;5.30;99.90;;;;;;2090595;28;19913;-72
2022/01/16 01:27:59;;;;;;;;;;;5.30;99.90;;;;;;2091391;28;19913;-72
2022/01/16 01:28:59;;;;;;;;;;;5.20;99.90;;;;;;2089429;28;19948;-72
2022/01/16 01:30:06;;;;;;;;;;;5.20;99.90;;;;;;2091311;28;19916;-72
2022/01/16 01:31:07;;;;;;;;;;;5.20;99.90;;;;;;2091210;28;19909;-72
2022/01/16 01:32:07;;;;;;;;;;;5.20;99.90;;;;;;2089891;28;19919;-72
2022/01/16 01:33:08;;;;;;;;;;;5.20;99.90;;;;;;2091478;28;19920;-72
2022/01/16 01:34:08;;;;;;;;;;;5.10;99.90;;;;;;2091197;28;20328;-72
2022/01/16 01:35:10;;;;;;;;;;;5.10;99.90;;;;;;2091368;28;20515;-72
2022/01/16 01:36:11;;;;;;;;;;;5.10;99.90;;;;;;2091180;28;19912;-72
2022/01/16 01:37:11;;;;;;;;;;;5.10;99.90;;;;;;2091421;28;19916;-72
2022/01/16 01:38:12;;;;;;;;;;;5.10;99.90;;;;;;2091280;28;19913;-72
2022/01/16 01:39:12;;;;;;;;;;;5.10;99.90;;;;;;2085489;28;20362;-72
2022/01/16 01:40:15;;;;;;;;;;;5.10;99.90;;;;;;2084431;28;19988;-72
2022/01/16 01:41:16;;;;;;;;;;;5.00;99.90;;;;;;2091445;28;20000;-72
2022/01/16 01:42:17;;;;;;;;;;;5.00;99.90;;;;;;2091470;28;19916;-72
2022/01/16 01:51:07;;;;;;;;;;;4.90;99.90;;;;;;2087007;28;19916;-72
2022/01/16 01:52:07;;;;;;;;;;;4.90;99.90;;;;;;2091254;28;19908;-72
2022/01/16 01:53:08;;;;;;;;;;;4.90;99.90;;;;;;2090947;28;19923;-72
2022/01/16 01:54:08;;;;;;;;;;;4.90;99.90;;;;;;2089581;28;19935;-72
2022/01/16 01:55:09;;;;;;;;;;;4.90;99.90;;;;;;2090725;28;19963;-72
2022/01/16 01:56:11;;;;;;;;;;;4.90;99.90;;;;;;2091125;28;19995;-72
2022/01/16 01:57:12;;;;;;;;;;;4.90;99.90;;;;;;2091227;28;20076;-72
2022/01/16 01:58:14;;;;;;;;;;;4.90;99.90;;;;;;2091305;28;19938;-72
2022/01/16 01:59:15;;;;;;;;;;;4.90;99.90;;;;;;2090507;28;19917;-72
2022/01/16 02:00:17;;;;;;;;;;;4.90;99.90;;;;;;2091426;28;19916;-72
2022/01/16 02:01:18;;;;;;;;;;;4.90;99.90;;;;;;2091073;28;19931;-72
2022/01/16 02:02:18;;;;;;;;;;;4.90;99.90;;;;;;2091150;28;19915;-72
2022/01/16 02:03:28;;;;;;;;;;;4.90;99.90;;;;;;2089798;28;20353;-72
2022/01/16 02:04:28;;;;;;;;;;;4.90;99.90;;;;;;2089821;28;20019;-72
2022/01/16 02:05:30;;;;;;;;;;;4.90;99.90;;;;;;2081404;28;19917;-72
2022/01/16 02:06:31;;;;;;;;;;;4.90;99.90;;;;;;2093420;28;19908;-72
2022/01/16 02:07:32;;;;;;;;;;;4.90;99.90;;;;;;2096901;28;20011;-72
2022/01/16 02:08:34;;;;;;;;;;;4.90;99.90;;;;;;2089339;28;19909;-72
2022/01/16 02:09:37;;;;;;;;;;;4.90;99.90;;;;;;2084353;28;19916;-72
2022/01/16 02:10:38;;;;;;;;;;;4.90;99.90;;;;;;2089836;28;19909;-72
2022/01/16 02:11:38;;;;;;;;;;;4.90;99.90;;;;;;2089550;28;20007;-72
2022/01/16 02:12:43;;;;;;;;;;;4.90;99.90;;;;;;2089574;28;19923;-72
2022/01/16 02:13:54;;;;;;;;;;;4.90;99.90;;;;;;2089604;28;19916;-72
2022/01/16 02:15:04;;;;;;;;;;;4.90;99.90;;;;;;2089865;28;19934;-72
2022/01/16 02:28:02;;;;;;;;;;;4.90;99.90;;;;;;2088133;28;19916;-72
2022/01/16 02:31:25;;;;;;;;;;;4.90;99.90;;;;;;2080980;28;19948;-72
2022/01/16 02:33:00;;;;;;;;;;;4.90;99.90;;;;;;2085298;28;19909;-72
2022/01/16 02:34:51;;;;;;;;;;;4.90;99.90;;;;;;2080972;28;19920;-72
2022/01/16 02:35:55;;;;;;;;;;;4.90;99.90;;;;;;2087079;28;19943;-72
2022/01/16 02:36:59;;;;;;;;;;;4.90;99.90;;;;;;2089202;28;19992;-72
2022/01/16 02:38:00;;;;;;;;;;;4.90;99.90;;;;;;2088582;28;19998;-72
2022/01/16 02:39:05;;;;;;;;;;;4.90;99.90;;;;;;2086010;28;19921;-72
2022/01/16 02:40:16;;;;;;;;;;;4.90;99.90;;;;;;2081475;28;19909;-72
2022/01/16 02:41:17;;;;;;;;;;;4.90;99.90;;;;;;2096841;28;19912;-72
2022/01/16 02:42:18;;;;;;;;;;;4.90;99.90;;;;;;2096883;28;19912;-72
2022/01/16 02:43:28;;;;;;;;;;;4.90;99.90;;;;;;2089077;28;20138;-72
2022/01/16 02:45:31;;;;;;;;;;;4.90;99.90;;;;;;2088698;28;19917;-72
2022/01/16 02:47:32;;;;;;;;;;;4.90;99.90;;;;;;2089043;28;19948;-72
2022/01/16 02:48:33;;;;;;;;;;;4.90;99.90;;;;;;2087981;28;20531;-72
2022/01/16 02:49:34;;;;;;;;;;;4.90;99.90;;;;;;2081115;28;20394;-72
2022/01/16 02:50:35;;;;;;;;;;;4.90;99.90;;;;;;2083605;28;19956;-72
2022/01/16 02:51:36;;;;;;;;;;;4.90;99.90;;;;;;2088300;28;19913;-72
2022/01/16 02:52:36;;;;;;;;;;;4.90;99.90;;;;;;2088520;28;19916;-72
2022/01/16 02:53:37;;;;;;;;;;;4.90;99.90;;;;;;2089036;28;19917;-72
2022/01/16 02:54:39;;;;;;;;;;;4.90;99.90;;;;;;2089045;28;19988;-72
2022/01/16 02:55:41;;;;;;;;;;;4.90;99.90;;;;;;2084035;28;20288;-72
2022/01/16 02:56:43;;;;;;;;;;;4.90;99.90;;;;;;2088167;28;19924;-72
2022/01/16 02:57:43;;;;;;;;;;;4.90;99.90;;;;;;2088524;28;19975;-72
2022/01/16 02:58:44;;;;;;;;;;;4.90;99.90;;;;;;2096500;28;19966;-72
2022/01/16 02:59:48;;;;;;;;;;;4.90;99.90;;;;;;2086599;28;20008;-72
2022/01/16 03:00:48;;;;;;;;;;;5.00;99.90;;;;;;2086659;28;19912;-72
2022/01/16 03:01:49;;;;;;;;;;;5.00;99.90;;;;;;2090477;28;19909;-72
2022/01/16 03:02:49;;;;;;;;;;;5.00;99.90;;;;;;2089732;28;19975;-72
2022/01/16 03:03:50;;;;;;;;;;;5.00;99.90;;;;;;2090317;28;19913;-72
2022/01/16 03:04:51;;;;;;;;;;;5.00;99.90;;;;;;2090417;28;19963;-72
2022/01/16 03:05:51;;;;;;;;;;;5.00;99.90;;;;;;2089987;28;19956;-72
2022/01/16 03:06:52;;;;;;;;;;;5.00;99.90;;;;;;2090394;28;19959;-72
2022/01/16 03:07:52;;;;;;;;;;;5.00;99.90;;;;;;2090093;28;19915;-72
2022/01/16 03:08:53;;;;;;;;;;;5.00;99.90;;;;;;2090560;28;21938;-72
2022/01/16 03:11:20;;;;;;;;;;;5.00;99.90;;;;;;2090024;28;19909;-72
2022/01/16 03:12:20;;;;;;;;;;;5.00;99.90;;;;;;2090424;28;19912;-72
2022/01/16 03:13:21;;;;;;;;;;;4.90;99.90;;;;;;2090391;28;20375;-72
2022/01/16 03:14:22;;;;;;;;;;;4.90;99.90;;;;;;2090111;28;19908;-72
2022/01/16 03:15:23;;;;;;;;;;;4.90;99.90;;;;;;2089838;28;20353;-72
2022/01/16 03:16:24;;;;;;;;;;;4.90;99.90;;;;;;2089680;28;19915;-72
2022/01/16 03:17:38;;;;;;;;;;;4.90;99.90;;;;;;2090193;28;19920;-72
2022/01/16 03:22:35;;;;;;;;;;;4.90;99.90;;;;;;2090491;28;19908;-72
2022/01/16 03:23:36;;;;;;;;;;;4.90;99.90;;;;;;2083470;28;19914;-72
2022/01/16 03:24:38;;;;;;;;;;;4.90;99.90;;;;;;2083055;28;20253;-72
2022/01/16 03:25:39;;;;;;;;;;;4.90;99.90;;;;;;2089714;28;19983;-72
2022/01/16 03:26:39;;;;;;;;;;;4.90;99.90;;;;;;2089912;28;19908;-72
2022/01/16 03:27:40;;;;;;;;;;;4.90;99.90;;;;;;2094318;28;19915;-72
2022/01/16 03:28:40;;;;;;;;;;;4.90;99.90;;;;;;2098436;28;19916;-72
2022/01/16 03:29:42;;;;;;;;;;;4.90;99.90;;;;;;2084811;28;20250;-72
2022/01/16 03:30:42;;;;;;;;;;;4.90;99.90;;;;;;2085269;28;19912;-72
2022/01/16 03:31:43;;;;;;;;;;;4.90;99.90;;;;;;2089831;28;19913;-72
2022/01/16 03:32:43;;;;;;;;;;;4.90;99.90;;;;;;2090125;28;20376;-72
2022/01/16 03:33:44;;;;;;;;;;;4.90;99.90;;;;;;2090256;28;19913;-72
2022/01/16 03:34:44;;;;;;;;;;;4.90;99.90;;;;;;2090066;28;20381;-72
2022/01/16 03:35:46;;;;;;;;;;;4.90;99.90;;;;;;2089141;28;19912;-72
2022/01/16 03:36:46;;;;;;;;;;;4.90;99.90;;;;;;2089225;28;19948;-72
2022/01/16 03:37:47;;;;;;;;;;;4.90;99.90;;;;;;2090134;28;19916;-72
2022/01/16 03:38:48;;;;;;;;;;;4.80;99.90;;;;;;2089858;28;19916;-72
2022/01/16 03:39:48;;;;;;;;;;;4.80;99.90;;;;;;2085176;28;19920;-72
2022/01/16 03:40:48;;;;;;;;;;;4.80;99.90;;;;;;2087943;28;19963;-72
2022/01/16 03:41:49;;;;;;;;;;;4.80;99.90;;;;;;2090140;28;19956;-72
2022/01/16 03:42:50;;;;;;;;;;;4.80;99.90;;;;;;2090155;28;19916;-72
2022/01/16 03:43:50;;;;;;;;;;;4.80;99.90;;;;;;2090226;28;19920;-72
2022/01/16 03:44:51;;;;;;;;;;;4.80;99.90;;;;;;2090209;28;19966;-72
2022/01/16 03:45:51;;;;;;;;;;;4.80;99.90;;;;;;2089365;28;19913;-72
2022/01/16 03:46:52;;;;;;;;;;;4.80;99.90;;;;;;2089698;28;20003;-72
2022/01/16 03:47:52;;;;;;;;;;;4.80;99.90;;;;;;2090396;28;19909;-72
2022/01/16 03:48:53;;;;;;;;;;;4.80;99.90;;;;;;2089947;28;19909;-72
2022/01/16 03:49:53;;;;;;;;;;;4.80;99.90;;;;;;2085717;28;20302;-72
2022/01/16 03:50:54;;;;;;;;;;;4.80;99.90;;;;;;2089960;28;19913;-72
2022/01/16 03:51:55;;;;;;;;;;;4.80;99.90;;;;;;2090190;28;19916;-72
2022/01/16 03:52:55;;;;;;;;;;;4.80;99.90;;;;;;2089385;28;19980;-72
2022/01/16 03:53:56;;;;;;;;;;;4.90;99.90;;;;;;2090022;28;19984;-72
2022/01/16 03:54:56;;;;;;;;;;;4.80;99.90;;;;;;2089837;28;20526;-72
2022/01/16 03:55:57;;;;;;;;;;;4.80;99.90;;;;;;2089527;28;20557;-72
2022/01/16 03:56:58;;;;;;;;;;;4.80;99.90;;;;;;2090091;28;19924;-72
2022/01/16 03:57:58;;;;;;;;;;;4.80;99.90;;;;;;2087354;28;19923;-72
2022/01/16 03:58:59;;;;;;;;;;;4.80;99.90;;;;;;2089606;28;20005;-72
2022/01/16 03:59:59;;;;;;;;;;;4.80;99.90;;;;;;2089598;28;19916;-72
2022/01/16 04:01:00;;;;;;;;;;;4.80;99.90;;;;;;2089972;28;20242;-72
2022/01/16 04:02:00;;;;;;;;;;;4.80;99.90;;;;;;2088908;28;19920;-72
2022/01/16 04:03:01;;;;;;;;;;;4.80;99.90;;;;;;2088551;28;19916;-72
2022/01/16 04:04:02;;;;;;;;;;;4.80;99.90;;;;;;2088234;28;19947;-72
2022/01/16 04:05:03;;;;;;;;;;;4.80;99.90;;;;;;2089206;28;19909;-72
2022/01/16 04:06:03;;;;;;;;;;;4.80;99.90;;;;;;2088381;28;19955;-72
2022/01/16 04:07:05;;;;;;;;;;;4.80;99.90;;;;;;2089186;28;20011;-72
2022/01/16 04:08:05;;;;;;;;;;;4.80;99.90;;;;;;2088044;28;19913;-72
2022/01/16 04:09:06;;;;;;;;;;;4.80;99.90;;;;;;2079548;28;19921;-72
2022/01/16 04:10:07;;;;;;;;;;;4.80;99.90;;;;;;2086446;28;19927;-72
2022/01/16 04:11:08;;;;;;;;;;;4.80;99.90;;;;;;2088873;28;19909;-72
2022/01/16 04:12:10;;;;;;;;;;;4.80;99.90;;;;;;2088832;28;19992;-72
2022/01/16 04:13:11;;;;;;;;;;;4.80;99.90;;;;;;2088775;28;19916;-72
2022/01/16 04:14:21;;;;;;;;;;;4.80;99.90;;;;;;2088988;28;19960;-72
2022/01/16 04:16:23;;;;;;;;;;;4.80;99.90;;;;;;2087850;28;19913;-72
2022/01/16 04:17:24;;;;;;;;;;;4.80;99.90;;;;;;2088537;28;19916;-72
2022/01/16 04:18:24;;;;;;;;;;;4.80;99.90;;;;;;2088666;28;19919;-72
2022/01/16 04:19:25;;;;;;;;;;;4.80;99.90;;;;;;2087919;28;19913;-72
2022/01/16 04:20:25;;;;;;;;;;;4.80;99.90;;;;;;2080576;28;19914;-72
2022/01/16 04:21:27;;;;;;;;;;;4.80;99.90;;;;;;2086936;28;19913;-72
2022/01/16 04:22:27;;;;;;;;;;;4.90;99.90;;;;;;2088548;28;19909;-72
2022/01/16 04:23:27;;;;;;;;;;;4.80;99.90;;;;;;2088791;28;19909;-72
2022/01/16 04:24:28;;;;;;;;;;;4.80;99.90;;;;;;2088526;28;19960;-72
2022/01/16 04:25:29;;;;;;;;;;;4.80;99.90;;;;;;2087845;28;19913;-72
2022/01/16 04:26:29;;;;;;;;;;;4.80;99.90;;;;;;2086810;28;20292;-72
2022/01/16 04:27:29;;;;;;;;;;;4.80;99.90;;;;;;2087859;28;19916;-72
2022/01/16 04:28:30;;;;;;;;;;;4.80;99.90;;;;;;2080349;28;19917;-72
2022/01/16 04:29:30;;;;;;;;;;;4.80;99.90;;;;;;2086213;28;19913;-72
2022/01/16 04:30:31;;;;;;;;;;;4.90;99.90;;;;;;2082706;28;19999;-72
2022/01/16 04:31:31;;;;;;;;;;;4.80;99.90;;;;;;2088815;28;20380;-72
2022/01/16 04:32:32;;;;;;;;;;;4.90;99.90;;;;;;2088355;28;19988;-72
2022/01/16 04:33:33;;;;;;;;;;;4.90;99.90;;;;;;2088969;28;19909;-72
2022/01/16 04:34:33;;;;;;;;;;;4.90;99.90;;;;;;2088774;28;19952;-72
2022/01/16 04:35:33;;;;;;;;;;;4.80;99.90;;;;;;2088297;28;19917;-72
2022/01/16 04:36:34;;;;;;;;;;;4.90;99.90;;;;;;2088182;28;19917;-72
2022/01/16 04:37:34;;;;;;;;;;;4.80;99.90;;;;;;2087558;28;20461;-72
2022/01/16 04:38:36;;;;;;;;;;;4.90;99.90;;;;;;2088015;28;19999;-72
2022/01/16 04:39:37;;;;;;;;;;;4.80;99.90;;;;;;2086591;28;19916;-72
2022/01/16 04:40:44;;;;;;;;;;;4.80;99.90;;;;;;2085416;28;19956;-72
2022/01/16 04:44:23;;;;;;;;;;;4.80;99.90;;;;;;2088053;28;19917;-72
2022/01/16 04:45:23;;;;;;;;;;;4.80;99.90;;;;;;2085058;28;19913;-72
2022/01/16 04:46:25;;;;;;;;;;;4.80;99.90;;;;;;2087953;28;19917;-72
2022/01/16 04:47:26;;;;;;;;;;;4.80;99.90;;;;;;2096132;28;19984;-72
2022/01/16 04:48:26;;;;;;;;;;;4.80;99.90;;;;;;2096546;28;19912;-72
2022/01/16 04:49:27;;;;;;;;;;;4.80;99.90;;;;;;2087663;28;19944;-72
2022/01/16 04:50:27;;;;;;;;;;;4.80;99.90;;;;;;2088582;28;19909;-72
2022/01/16 04:51:29;;;;;;;;;;;4.80;99.90;;;;;;2085952;28;19921;-72
2022/01/16 04:52:29;;;;;;;;;;;4.80;99.90;;;;;;2088434;28;19952;-72
2022/01/16 04:53:30;;;;;;;;;;;4.80;99.90;;;;;;2088535;28;19913;-72
2022/01/16 04:54:31;;;;;;;;;;;4.80;99.90;;;;;;2088352;28;20419;-72
2022/01/16 04:55:32;;;;;;;;;;;4.80;99.90;;;;;;2088642;28;20003;-72
2022/01/16 04:56:32;;;;;;;;;;;4.80;99.90;;;;;;2087725;28;19909;-72
2022/01/16 04:57:32;;;;;;;;;;;4.80;99.90;;;;;;2088254;28;19967;-72
2022/01/16 04:58:34;;;;;;;;;;;4.80;99.90;;;;;;2089002;28;19916;-72
2022/01/16 04:59:34;;;;;;;;;;;4.80;99.90;;;;;;2087067;28;19922;-72
2022/01/16 05:00:35;;;;;;;;;;;4.80;99.90;;;;;;2091289;28;19966;-72
2022/01/16 05:01:35;;;;;;;;;;;4.80;99.90;;;;;;2092299;28;19954;-72
2022/01/16 05:02:36;;;;;;;;;;;4.80;99.90;;;;;;2088401;28;19913;-72
2022/01/16 05:03:37;;;;;;;;;;;4.80;99.90;;;;;;2088586;28;20396;-72
2022/01/16 05:04:38;;;;;;;;;;;4.80;99.90;;;;;;2088308;28;19909;-72
2022/01/16 05:05:38;;;;;;;;;;;4.80;99.90;;;;;;2087779;28;19920;-72
2022/01/16 05:06:38;;;;;;;;;;;4.80;99.90;;;;;;2087712;28;19931;-72
2022/01/16 05:07:39;;;;;;;;;;;4.80;99.90;;;;;;2088288;28;20376;-72
2022/01/16 05:08:40;;;;;;;;;;;4.80;99.90;;;;;;2088191;28;19908;-72
2022/01/16 05:09:40;;;;;;;;;;;4.80;99.90;;;;;;2088417;28;19959;-72
2022/01/16 05:10:41;;;;;;;;;;;4.80;99.90;;;;;;2088576;28;19913;-72
2022/01/16 05:11:41;;;;;;;;;;;4.80;99.90;;;;;;2088820;28;19913;-72
2022/01/16 05:12:45;;;;;;;;;;;4.80;99.90;;;;;;2087633;28;19913;-72
2022/01/16 05:17:24;;;;;;;;;;;4.80;99.90;;;;;;2088457;28;19917;-72
2022/01/16 05:18:25;;;;;;;;;;;4.80;99.90;;;;;;2088599;28;19916;-72
2022/01/16 05:19:25;;;;;;;;;;;4.80;99.90;;;;;;2088596;28;19913;-72
2022/01/16 05:20:25;;;;;;;;;;;4.80;99.90;;;;;;2080410;28;19910;-72
2022/01/16 05:21:26;;;;;;;;;;;4.80;99.90;;;;;;2087555;28;20376;-72
2022/01/16 05:22:26;;;;;;;;;;;4.80;99.90;;;;;;2085785;28;19985;-72
2022/01/16 05:23:27;;;;;;;;;;;4.80;99.90;;;;;;2080361;28;20412;-72
2022/01/16 05:24:32;;;;;;;;;;;4.80;99.90;;;;;;2085573;28;19909;-72
2022/01/16 05:25:32;;;;;;;;;;;4.80;99.90;;;;;;2088140;28;20261;-72
2022/01/16 05:26:34;;;;;;;;;;;4.80;99.90;;;;;;2088288;28;20022;-72
2022/01/16 05:27:35;;;;;;;;;;;4.80;99.90;;;;;;2088392;28;19982;-72
2022/01/16 05:28:35;;;;;;;;;;;4.80;99.90;;;;;;2088539;28;19917;-72
2022/01/16 05:29:36;;;;;;;;;;;4.80;99.90;;;;;;2087235;28;19957;-72
2022/01/16 05:30:37;;;;;;;;;;;4.80;99.90;;;;;;2083053;28;20329;-72
2022/01/16 05:31:44;;;;;;;;;;;4.80;99.90;;;;;;2088476;28;19909;-72
2022/01/16 05:32:44;;;;;;;;;;;4.90;99.90;;;;;;2087962;28;20424;-72
2022/01/16 05:33:46;;;;;;;;;;;4.80;99.90;;;;;;2088013;28;20269;-72
2022/01/16 05:34:46;;;;;;;;;;;4.80;99.90;;;;;;2088590;28;20319;-72
2022/01/16 05:35:47;;;;;;;;;;;4.90;99.90;;;;;;2095501;28;19909;-72
2022/01/16 05:36:47;;;;;;;;;;;4.80;99.90;;;;;;2095901;28;19920;-73
2022/01/16 05:37:48;;;;;;;;;;;4.90;99.90;;;;;;2093634;28;20369;-72
2022/01/16 05:38:49;;;;;;;;;;;4.90;99.90;;;;;;2092672;28;19909;-72
2022/01/16 05:39:49;;;;;;;;;;;4.90;99.90;;;;;;2091761;28;19998;-72
2022/01/16 05:40:50;;;;;;;;;;;4.90;99.90;;;;;;2089853;28;19982;-72
2022/01/16 05:41:50;;;;;;;;;;;4.90;99.90;;;;;;2089338;28;19913;-72
2022/01/16 05:42:51;;;;;;;;;;;4.90;99.90;;;;;;2090113;28;20009;-72
2022/01/16 05:43:52;;;;;;;;;;;4.90;99.90;;;;;;2089595;28;19913;-72
2022/01/16 05:44:52;;;;;;;;;;;4.90;99.90;;;;;;2089683;28;19909;-72
2022/01/16 05:45:53;;;;;;;;;;;4.80;99.90;;;;;;2089325;28;20375;-72
2022/01/16 05:46:53;;;;;;;;;;;4.80;99.90;;;;;;2089821;28;19935;-72
2022/01/16 05:47:54;;;;;;;;;;;4.90;99.90;;;;;;2089501;28;19952;-72
2022/01/16 05:48:55;;;;;;;;;;;4.80;99.90;;;;;;2089879;28;19916;-72
2022/01/16 05:49:55;;;;;;;;;;;4.90;99.90;;;;;;2087477;28;19913;-72
2022/01/16 05:50:55;;;;;;;;;;;4.90;99.90;;;;;;2089914;28;20344;-72
2022/01/16 05:51:56;;;;;;;;;;;4.90;99.90;;;;;;2089975;28;19989;-72
2022/01/16 05:53:00;;;;;;;;;;;4.90;99.90;;;;;;2089631;28;19913;-72
2022/01/16 05:54:01;;;;;;;;;;;4.90;99.90;;;;;;2088907;28;19909;-72
2022/01/16 05:55:01;;;;;;;;;;;4.90;99.90;;;;;;2088897;28;19909;-72
2022/01/16 05:56:02;;;;;;;;;;;4.90;99.90;;;;;;2096719;28;19918;-72
2022/01/16 05:57:02;;;;;;;;;;;4.90;99.90;;;;;;2084338;28;19920;-72
2022/01/16 05:58:04;;;;;;;;;;;4.90;99.90;;;;;;2082520;28;19941;-72
2022/01/16 05:59:04;;;;;;;;;;;4.90;99.90;;;;;;2089692;28;19912;-72
2022/01/16 06:00:06;;;;;;;;;;;4.90;99.90;;;;;;2089372;28;20011;-72
2022/01/16 06:01:07;;;;;;;;;;;4.90;99.90;;;;;;2089882;28;19909;-72
2022/01/16 06:02:07;;;;;;;;;;;4.90;99.90;;;;;;2089828;28;19954;-72
2022/01/16 06:03:09;;;;;;;;;;;4.90;99.90;;;;;;2088729;28;19917;-72
2022/01/16 06:04:10;;;;;;;;;;;4.90;99.90;;;;;;2088723;28;19971;-72
2022/01/16 06:05:12;;;;;;;;;;;4.90;99.90;;;;;;2087810;28;19961;-72
2022/01/16 06:06:12;;;;;;;;;;;4.90;99.90;;;;;;2089136;28;20513;-72
2022/01/16 06:07:13;;;;;;;;;;;4.90;99.90;;;;;;2091069;28;20332;-71
2022/01/16 06:08:14;;;;;;;;;;;4.90;99.90;;;;;;2091097;28;19913;-72
2022/01/16 06:09:14;;;;;;;;;;;4.90;99.90;;;;;;2090301;28;20311;-72
2022/01/16 06:10:15;;;;;;;;;;;4.90;99.90;;;;;;2090743;28;19975;-72
2022/01/16 06:11:16;;;;;;;;;;;4.90;99.90;;;;;;2090906;28;19916;-72
2022/01/16 06:12:16;;;;;;;;;;;4.90;99.90;;;;;;2091328;28;19909;-72
2022/01/16 06:13:17;;;;;;;;;;;4.90;99.90;;;;;;2090924;28;19965;-72
2022/01/16 06:14:17;;;;;;;;;;;4.90;99.90;;;;;;2091033;28;20370;-72
2022/01/16 06:15:21;;;;;;;;;;;4.90;99.90;;;;;;2090966;28;20379;-72
2022/01/16 06:16:22;;;;;;;;;;;4.90;99.90;;;;;;2091013;28;19967;-72
2022/01/16 06:17:22;;;;;;;;;;;4.90;99.90;;;;;;2085979;28;20419;-72
2022/01/16 06:18:23;;;;;;;;;;;4.90;99.90;;;;;;2090900;28;19916;-72
2022/01/16 06:19:23;;;;;;;;;;;4.90;99.90;;;;;;2090751;28;19940;-72
2022/01/16 06:20:24;;;;;;;;;;;4.90;99.90;;;;;;2091212;28;19913;-72
2022/01/16 06:21:24;;;;;;;;;;;4.90;99.90;;;;;;2090914;28;19912;-72
2022/01/16 06:22:25;;;;;;;;;;;4.90;99.90;;;;;;2091063;28;20360;-72
2022/01/16 06:23:25;;;;;;;;;;;4.90;99.90;;;;;;2090990;28;19908;-72
2022/01/16 06:24:25;;;;;;;;;;;4.90;99.90;;;;;;2090735;28;20337;-72
2022/01/16 06:25:28;;;;;;;;;;;5.00;99.90;;;;;;2090944;28;19909;-72
2022/01/16 06:26:28;;;;;;;;;;;4.90;99.90;;;;;;2090916;28;20284;-72
2022/01/16 06:27:29;;;;;;;;;;;5.00;99.90;;;;;;2090340;28;19913;-72
2022/01/16 06:28:30;;;;;;;;;;;5.00;99.90;;;;;;2091196;28;19952;-72
2022/01/16 06:29:31;;;;;;;;;;;5.00;99.90;;;;;;2090785;28;20382;-72
2022/01/16 06:30:32;;;;;;;;;;;5.00;99.90;;;;;;2091057;28;19916;-72
2022/01/16 06:31:32;;;;;;;;;;;5.00;99.90;;;;;;2086825;28;19924;-72
2022/01/16 06:32:33;;;;;;;;;;;5.00;99.90;;;;;;2090771;28;19909;-72
2022/01/16 06:33:33;;;;;;;;;;;5.00;99.90;;;;;;2090792;28;19912;-72
2022/01/16 06:34:33;;;;;;;;;;;5.00;99.90;;;;;;2090912;28;19958;-72
2022/01/16 06:35:34;;;;;;;;;;;5.00;99.90;;;;;;2090794;28;19948;-72
2022/01/16 06:36:35;;;;;;;;;;;5.00;99.90;;;;;;2090838;28;19996;-72
2022/01/16 06:37:35;;;;;;;;;;;5.00;99.90;;;;;;2085622;28;19913;-72
2022/01/16 06:38:36;;;;;;;;;;;5.00;99.90;;;;;;2084616;28;19913;-72
2022/01/16 06:39:36;;;;;;;;;;;5.00;99.90;;;;;;2090543;28;19917;-72
2022/01/16 06:40:37;;;;;;;;;;;5.00;99.90;;;;;;2095407;28;20333;-72
2022/01/16 06:41:38;;;;;;;;;;;5.00;99.90;;;;;;2090929;28;19923;-72
2022/01/16 06:42:39;;;;;;;;;;;5.00;99.90;;;;;;2090832;28;20412;-72
2022/01/16 06:43:40;;;;;;;;;;;5.00;99.90;;;;;;2090929;28;20002;-72
2022/01/16 06:44:40;;;;;;;;;;;5.00;99.90;;;;;;2090749;28;19913;-72